createdAt,value
2022-12-27T00:00:14.210Z,91.20
2022-12-27T00:02:41.561Z,91.10
2022-12-27T00:05:09.631Z,91.10
2022-12-27T00:07:37.193Z,91.10
2022-12-27T00:10:05.578Z,91.10
2022-12-27T00:12:32.368Z,91.10
2022-12-27T00:14:59.121Z,91.10
2022-12-27T00:17:25.964Z,91.10
2022-12-27T00:19:52.723Z,91.10
2022-12-27T00:22:19.984Z,91.10
2022-12-27T00:24:47.777Z,91.10
2022-12-27T00:27:14.648Z,91.10
2022-12-27T00:29:41.463Z,91.00
2022-12-27T00:32:08.263Z,90.90
2022-12-27T00:34:35.248Z,91.00
2022-12-27T00:37:02.020Z,91.00
2022-12-27T00:39:28.764Z,91.00
2022-12-27T00:41:55.569Z,91.00
2022-12-27T00:44:22.378Z,91.00
2022-12-27T00:46:49.140Z,90.90
2022-12-27T00:49:15.867Z,91.00
2022-12-27T00:51:42.648Z,90.90
2022-12-27T00:54:09.417Z,90.90
2022-12-27T00:56:36.239Z,90.80
2022-12-27T00:59:04.626Z,90.80
2022-12-27T01:01:34.871Z,90.90
2022-12-27T01:04:02.823Z,91.00
2022-12-27T01:06:32.275Z,91.00
2022-12-27T01:09:00.629Z,91.00
2022-12-27T01:11:28.490Z,91.00
2022-12-27T01:14:00.364Z,91.00
2022-12-27T01:16:29.187Z,91.10
2022-12-27T01:18:56.267Z,91.10
2022-12-27T01:21:25.125Z,91.10
2022-12-27T01:23:52.374Z,91.10
2022-12-27T01:26:21.297Z,91.20
2022-12-27T01:28:49.435Z,91.10
2022-12-27T01:31:22.887Z,91.00
2022-12-27T01:33:49.783Z,91.10
2022-12-27T01:36:19.583Z,91.10
2022-12-27T01:38:48.166Z,91.00
2022-12-27T01:41:47.130Z,91.00
2022-12-27T01:44:39.037Z,91.00
2022-12-27T01:47:33.817Z,91.10
2022-12-27T01:50:03.287Z,91.10
2022-12-27T01:52:51.562Z,91.10
2022-12-27T01:55:21.225Z,91.10
2022-12-27T01:57:50.282Z,91.30
2022-12-27T02:00:17.966Z,91.30
2022-12-27T02:02:44.986Z,91.30
2022-12-27T02:05:15.197Z,91.20
2022-12-27T02:08:01.916Z,91.20
2022-12-27T02:10:29.459Z,91.20
2022-12-27T02:12:57.598Z,91.20
2022-12-27T02:15:24.388Z,91.20
2022-12-27T02:17:51.190Z,91.20
2022-12-27T02:20:22.653Z,91.20
2022-12-27T02:23:33.570Z,91.30
2022-12-27T02:26:23.238Z,91.20
2022-12-27T02:29:25.121Z,91.10
2022-12-27T02:32:24.015Z,91.20
2022-12-27T02:35:07.146Z,91.20
2022-12-27T02:37:38.761Z,91.20
2022-12-27T02:40:27.760Z,91.20
2022-12-27T02:43:13.741Z,91.20
2022-12-27T02:46:09.878Z,91.20
2022-12-27T02:48:55.149Z,91.30
2022-12-27T02:52:28.233Z,91.30
2022-12-27T02:56:08.412Z,91.10
2022-12-27T02:58:44.209Z,90.90
2022-12-27T03:01:45.616Z,90.80
2022-12-27T03:04:32.957Z,90.80
2022-12-27T03:07:11.893Z,90.90
2022-12-27T03:10:09.426Z,90.70
2022-12-27T03:13:25.676Z,90.80
2022-12-27T03:16:01.568Z,90.90
2022-12-27T03:18:28.296Z,91.00
2022-12-27T03:21:16.712Z,91.00
2022-12-27T03:24:04.339Z,91.00
2022-12-27T03:26:34.463Z,91.10
2022-12-27T03:29:22.192Z,91.10
2022-12-27T03:32:13.167Z,91.20
2022-12-27T03:34:44.900Z,91.20
2022-12-27T03:37:34.695Z,91.20
2022-12-27T03:40:38.867Z,91.10
2022-12-27T03:43:12.727Z,91.10
2022-12-27T03:46:26.466Z,91.20
2022-12-27T03:49:19.403Z,91.20
2022-12-27T03:52:04.767Z,91.30
2022-12-27T03:54:36.342Z,91.30
2022-12-27T03:57:15.683Z,91.20
2022-12-27T03:59:42.741Z,91.30
2022-12-27T04:02:09.767Z,91.20
2022-12-27T04:04:37.167Z,91.20
2022-12-27T04:07:04.873Z,91.20
2022-12-27T04:09:50.122Z,91.20
2022-12-27T04:12:35.741Z,91.30
2022-12-27T04:15:27.424Z,91.30
2022-12-27T04:18:12.857Z,91.30
2022-12-27T04:20:58.522Z,91.40
2022-12-27T04:23:44.135Z,91.40
2022-12-27T04:26:29.519Z,91.40
2022-12-27T04:29:15.048Z,91.50
2022-12-27T04:32:00.561Z,91.50
2022-12-27T04:34:45.512Z,91.60
2022-12-27T04:37:15.342Z,91.60
2022-12-27T04:40:03.125Z,91.70
2022-12-27T04:42:48.411Z,91.80
2022-12-27T04:45:33.887Z,91.80
2022-12-27T04:48:19.311Z,91.90
2022-12-27T04:51:04.946Z,92.00
2022-12-27T04:53:50.409Z,92.00
2022-12-27T04:56:17.143Z,92.10
2022-12-27T04:59:03.851Z,92.10
2022-12-27T05:01:49.572Z,92.10
2022-12-27T05:04:16.704Z,92.20
2022-12-27T05:06:43.527Z,92.20
2022-12-27T05:09:28.715Z,92.10
2022-12-27T05:12:21.796Z,91.90
2022-12-27T05:14:48.586Z,91.80
2022-12-27T05:17:15.368Z,91.80
2022-12-27T05:19:42.121Z,91.70
2022-12-27T05:22:27.510Z,91.70
2022-12-27T05:25:13.045Z,91.60
2022-12-27T05:27:39.743Z,91.50
2022-12-27T05:30:07.184Z,91.50
2022-12-27T05:32:33.932Z,91.50
2022-12-27T05:35:00.713Z,91.40
2022-12-27T05:37:27.485Z,91.40
2022-12-27T05:39:54.215Z,91.40
2022-12-27T05:42:20.948Z,91.40
2022-12-27T05:44:47.688Z,91.40
2022-12-27T05:47:14.426Z,91.30
2022-12-27T05:49:41.233Z,91.30
2022-12-27T05:52:08.001Z,91.30
2022-12-27T05:54:34.797Z,91.40
2022-12-27T05:57:01.549Z,91.40
2022-12-27T05:59:30.467Z,91.40
2022-12-27T06:01:57.455Z,91.40
2022-12-27T06:04:24.356Z,91.40
2022-12-27T06:06:51.089Z,91.40
2022-12-27T06:09:17.849Z,91.40
2022-12-27T06:11:44.646Z,91.30
2022-12-27T06:14:11.478Z,91.20
2022-12-27T06:16:38.209Z,91.30
2022-12-27T06:19:04.974Z,91.30
2022-12-27T06:21:31.763Z,91.30
2022-12-27T06:23:58.553Z,91.30
2022-12-27T06:26:28.409Z,91.30
2022-12-27T06:28:57.136Z,91.30
2022-12-27T06:31:25.195Z,91.20
2022-12-27T06:33:52.340Z,91.30
2022-12-27T06:36:22.069Z,91.20
2022-12-27T06:38:49.413Z,91.10
2022-12-27T06:41:18.241Z,91.00
2022-12-27T06:43:45.791Z,91.10
2022-12-27T06:46:17.832Z,91.10
2022-12-27T06:48:45.427Z,91.10
2022-12-27T06:51:13.292Z,91.20
2022-12-27T06:53:40.107Z,91.20
2022-12-27T06:56:16.655Z,91.30
2022-12-27T06:58:43.520Z,91.40
2022-12-27T07:01:16.224Z,91.30
2022-12-27T07:03:43.886Z,91.30
2022-12-27T07:06:11.773Z,91.20
2022-12-27T07:08:38.717Z,91.20
2022-12-27T07:11:08.496Z,91.00
2022-12-27T07:13:40.927Z,91.00
2022-12-27T07:16:13.832Z,91.00
2022-12-27T07:18:41.136Z,91.10
2022-12-27T07:21:13.778Z,91.10
2022-12-27T07:23:41.071Z,91.00
2022-12-27T07:26:13.638Z,90.90
2022-12-27T07:28:40.702Z,90.80
2022-12-27T07:31:19.937Z,90.90
2022-12-27T07:33:46.891Z,90.90
2022-12-27T07:36:22.194Z,90.90
2022-12-27T07:38:49.177Z,90.90
2022-12-27T07:41:16.973Z,90.80
2022-12-27T07:43:44.375Z,90.90
2022-12-27T07:46:17.195Z,90.90
2022-12-27T07:48:44.384Z,91.00
2022-12-27T07:51:18.060Z,91.00
2022-12-27T07:53:47.420Z,90.90
2022-12-27T07:56:23.435Z,90.90
2022-12-27T07:58:53.405Z,90.90
2022-12-27T08:01:21.919Z,90.90
2022-12-27T08:03:49.299Z,90.90
2022-12-27T08:06:35.211Z,90.90
2022-12-27T08:09:06.815Z,91.00
2022-12-27T08:11:33.655Z,91.10
2022-12-27T08:14:00.456Z,91.10
2022-12-27T08:16:27.545Z,91.10
2022-12-27T08:18:54.440Z,91.20
2022-12-27T08:21:21.334Z,91.20
2022-12-27T08:23:48.395Z,91.10
2022-12-27T08:26:15.890Z,91.10
2022-12-27T08:28:42.912Z,91.10
2022-12-27T08:31:12.485Z,91.10
2022-12-27T08:33:41.636Z,91.20
2022-12-27T08:36:29.063Z,91.20
2022-12-27T08:38:57.375Z,91.10
2022-12-27T08:41:24.336Z,91.10
2022-12-27T08:43:51.073Z,91.20
2022-12-27T08:46:19.529Z,91.20
2022-12-27T08:48:50.545Z,91.20
2022-12-27T08:51:27.268Z,91.00
2022-12-27T08:53:58.339Z,90.80
2022-12-27T08:56:25.187Z,90.80
2022-12-27T08:58:52.080Z,90.80
2022-12-27T09:01:19.462Z,90.80
2022-12-27T09:03:46.387Z,90.80
2022-12-27T09:06:18.270Z,90.80
2022-12-27T09:08:46.476Z,90.90
2022-12-27T09:11:28.526Z,91.00
2022-12-27T09:14:02.265Z,91.00
2022-12-27T09:16:30.220Z,91.10
2022-12-27T09:18:59.187Z,91.10
2022-12-27T09:21:29.261Z,91.20
2022-12-27T09:23:56.358Z,91.20
2022-12-27T09:26:26.536Z,91.10
2022-12-27T09:28:56.270Z,91.10
2022-12-27T09:31:24.054Z,91.10
2022-12-27T09:33:51.471Z,91.00
2022-12-27T09:36:23.958Z,91.00
2022-12-27T09:38:52.670Z,91.00
2022-12-27T09:45:03.816Z,91.10
2022-12-27T09:47:39.043Z,91.00
2022-12-27T09:50:13.700Z,91.10
2022-12-27T09:53:00.713Z,91.00
2022-12-27T09:56:02.793Z,91.10
2022-12-27T09:58:41.818Z,91.00
2022-12-27T10:01:20.127Z,90.90
2022-12-27T10:03:47.129Z,91.00
2022-12-27T10:06:22.637Z,90.90
2022-12-27T10:09:19.937Z,91.00
2022-12-27T10:11:56.632Z,91.00
2022-12-27T10:15:11.214Z,90.90
2022-12-27T10:18:13.885Z,90.70
2022-12-27T10:20:59.000Z,90.60
2022-12-27T10:23:32.660Z,90.60
2022-12-27T10:26:04.208Z,90.60
2022-12-27T10:28:44.624Z,90.60
2022-12-27T10:31:17.674Z,90.80
2022-12-27T10:33:45.920Z,90.70
2022-12-27T10:36:16.392Z,90.70
2022-12-27T10:38:43.132Z,90.60
2022-12-27T10:41:43.471Z,90.70
2022-12-27T10:44:13.313Z,90.70
2022-12-27T10:46:44.114Z,90.70
2022-12-27T10:49:32.330Z,90.60
2022-12-27T10:52:11.141Z,90.50
2022-12-27T10:54:53.709Z,90.50
2022-12-27T10:57:33.419Z,90.50
2022-12-27T11:00:23.262Z,90.50
2022-12-27T11:02:55.575Z,90.40
2022-12-27T11:05:31.157Z,90.40
2022-12-27T11:07:58.490Z,90.40
2022-12-27T11:10:33.291Z,90.20
2022-12-27T11:13:06.654Z,90.00
2022-12-27T11:15:44.611Z,90.00
2022-12-27T11:18:19.762Z,90.10
2022-12-27T11:20:50.672Z,90.20
2022-12-27T11:23:19.891Z,89.90
2022-12-27T11:26:05.140Z,90.10
2022-12-27T11:28:33.987Z,89.90
2022-12-27T11:31:11.768Z,89.90
2022-12-27T11:33:51.431Z,89.90
2022-12-27T11:36:28.632Z,90.00
2022-12-27T11:38:55.829Z,90.10
2022-12-27T11:41:34.699Z,90.20
2022-12-27T11:44:13.474Z,90.20
2022-12-27T11:46:58.546Z,89.50
2022-12-27T11:49:34.106Z,89.40
2022-12-27T11:52:40.967Z,89.70
2022-12-27T11:55:28.753Z,89.80
2022-12-27T11:58:23.803Z,90.00
2022-12-27T12:01:33.507Z,90.10
2022-12-27T12:04:26.006Z,90.00
2022-12-27T12:07:17.617Z,89.80
2022-12-27T12:10:18.579Z,90.10
2022-12-27T12:12:57.543Z,90.00
2022-12-27T12:15:45.874Z,90.20
2022-12-27T12:18:21.444Z,90.20
2022-12-27T12:20:54.292Z,90.10
2022-12-27T12:23:45.327Z,90.10
2022-12-27T12:26:22.086Z,89.80
2022-12-27T12:29:14.115Z,89.90
2022-12-27T12:32:08.910Z,90.00
2022-12-27T12:34:53.786Z,90.10
2022-12-27T12:37:32.668Z,90.10
2022-12-27T12:40:32.544Z,90.20
2022-12-27T12:43:17.371Z,90.30
2022-12-27T12:46:00.754Z,90.30
2022-12-27T12:49:07.893Z,90.20
2022-12-27T12:52:32.059Z,90.00
2022-12-27T12:55:39.757Z,90.10
2022-12-27T12:58:17.828Z,90.00
2022-12-27T13:00:50.211Z,90.10
2022-12-27T13:03:40.348Z,90.10
2022-12-27T13:06:40.986Z,90.20
2022-12-27T13:09:13.258Z,90.20
2022-12-27T13:11:45.053Z,90.30
2022-12-27T13:14:26.810Z,90.10
2022-12-27T13:17:05.103Z,90.20
2022-12-27T13:19:46.928Z,90.10
2022-12-27T13:22:37.949Z,90.20
2022-12-27T13:25:26.035Z,90.20
2022-12-27T13:27:55.808Z,90.20
2022-12-27T13:30:38.595Z,90.20
2022-12-27T13:33:25.617Z,90.30
2022-12-27T13:35:58.182Z,90.20
2022-12-27T13:38:37.293Z,90.10
2022-12-27T13:41:42.514Z,90.10
2022-12-27T13:44:42.265Z,90.20
2022-12-27T13:47:12.516Z,90.10
2022-12-27T13:50:14.194Z,90.20
2022-12-27T13:52:59.832Z,90.20
2022-12-27T13:55:42.106Z,90.30
2022-12-27T13:59:02.555Z,90.20
2022-12-27T14:01:36.775Z,90.10
2022-12-27T14:04:13.398Z,90.20
2022-12-27T14:07:12.202Z,90.20
2022-12-27T14:09:59.637Z,90.20
2022-12-27T14:12:44.482Z,90.20
2022-12-27T14:15:19.193Z,90.20
2022-12-27T14:17:53.670Z,90.30
2022-12-27T14:20:29.295Z,90.20
2022-12-27T14:23:14.270Z,90.30
2022-12-27T14:26:13.153Z,90.30
2022-12-27T14:29:07.582Z,90.40
2022-12-27T14:32:06.612Z,90.50
2022-12-27T14:34:59.878Z,90.60
2022-12-27T14:37:48.615Z,90.70
2022-12-27T14:40:36.852Z,90.80
2022-12-27T14:43:30.744Z,90.90
2022-12-27T14:46:15.605Z,91.00
2022-12-27T14:49:10.455Z,91.00
2022-12-27T14:52:01.060Z,91.00
2022-12-27T14:54:55.595Z,90.90
2022-12-27T14:57:40.431Z,90.80
2022-12-27T15:01:03.500Z,90.90
2022-12-27T15:04:04.323Z,90.90
2022-12-27T15:06:33.781Z,90.90
2022-12-27T15:09:48.594Z,91.00
2022-12-27T15:12:25.293Z,91.10
2022-12-27T15:14:58.779Z,91.10
2022-12-27T15:18:03.235Z,91.10
2022-12-27T15:20:47.344Z,91.10
2022-12-27T15:23:19.981Z,91.10
2022-12-27T15:26:09.680Z,91.10
2022-12-27T15:29:00.937Z,91.10
2022-12-27T15:31:36.533Z,91.10
2022-12-27T15:34:13.316Z,91.10
2022-12-27T15:36:42.408Z,91.10
2022-12-27T15:39:34.199Z,91.00
2022-12-27T15:42:12.555Z,91.00
2022-12-27T15:45:04.210Z,91.10
2022-12-27T15:47:42.961Z,91.10
2022-12-27T15:50:28.886Z,91.30
2022-12-27T15:53:04.448Z,91.30
2022-12-27T15:55:43.339Z,91.30
2022-12-27T15:58:36.595Z,91.50
2022-12-27T16:01:26.263Z,91.60
2022-12-27T16:03:58.618Z,91.80
2022-12-27T16:06:34.581Z,91.70
2022-12-27T16:09:23.375Z,91.70
2022-12-27T16:12:09.726Z,91.70
2022-12-27T16:14:41.502Z,91.80
2022-12-27T16:17:39.078Z,91.80
2022-12-27T16:20:18.740Z,91.90
2022-12-27T16:22:56.559Z,92.00
2022-12-27T16:25:31.721Z,92.00
2022-12-27T16:28:01.722Z,92.00
2022-12-27T16:30:50.435Z,92.10
2022-12-27T16:33:26.150Z,92.10
2022-12-27T16:36:11.612Z,92.10
2022-12-27T16:38:56.697Z,92.20
2022-12-27T16:41:36.769Z,92.30
2022-12-27T16:44:33.148Z,92.40
2022-12-27T16:47:06.217Z,92.40
2022-12-27T16:50:18.211Z,92.50
2022-12-27T16:53:26.743Z,92.70
2022-12-27T16:56:22.707Z,92.70
2022-12-27T16:58:49.987Z,92.80
2022-12-27T17:01:25.971Z,92.90
2022-12-27T17:03:57.573Z,92.90
2022-12-27T17:06:39.525Z,92.80
2022-12-27T17:09:09.377Z,92.70
2022-12-27T17:11:47.570Z,92.60
2022-12-27T17:14:27.957Z,92.60
2022-12-27T17:17:02.856Z,92.70
2022-12-27T17:19:45.451Z,92.80
2022-12-27T17:22:16.157Z,92.90
2022-12-27T17:24:58.081Z,93.00
2022-12-27T17:27:56.626Z,93.00
2022-12-27T17:30:36.622Z,93.20
2022-12-27T17:33:28.770Z,93.40
2022-12-27T17:35:58.391Z,93.40
2022-12-27T17:38:46.968Z,93.40
2022-12-27T17:41:47.573Z,93.40
2022-12-27T17:44:38.828Z,93.40
2022-12-27T17:47:29.636Z,93.20
2022-12-27T17:50:12.171Z,93.30
2022-12-27T17:53:14.600Z,93.50
2022-12-27T17:56:07.626Z,93.50
2022-12-27T17:58:35.119Z,93.50
2022-12-27T18:01:02.789Z,93.30
2022-12-27T18:03:45.820Z,93.10
2022-12-27T18:06:17.968Z,93.00
2022-12-27T18:08:49.246Z,92.90
2022-12-27T18:11:16.626Z,92.90
2022-12-27T18:13:52.797Z,92.80
2022-12-27T18:16:37.686Z,92.90
2022-12-27T18:19:06.256Z,93.00
2022-12-27T18:21:33.041Z,93.10
2022-12-27T18:23:59.827Z,93.20
2022-12-27T18:26:43.822Z,93.20
2022-12-27T18:29:11.683Z,93.20
2022-12-27T18:31:49.057Z,93.20
2022-12-27T18:34:48.760Z,93.30
2022-12-27T18:37:21.614Z,93.40
2022-12-27T18:39:51.375Z,93.60
2022-12-27T18:42:29.927Z,93.70
2022-12-27T18:45:14.896Z,93.80
2022-12-27T18:47:48.363Z,93.80
2022-12-27T18:50:19.302Z,93.80
2022-12-27T18:52:52.915Z,93.70
2022-12-27T18:55:28.848Z,93.70
2022-12-27T18:58:25.663Z,93.80
2022-12-27T19:01:39.920Z,94.00
2022-12-27T19:04:18.692Z,94.00
2022-12-27T19:06:48.470Z,94.00
2022-12-27T19:09:20.783Z,94.10
2022-12-27T19:11:57.623Z,94.20
2022-12-27T19:14:26.370Z,94.20
2022-12-27T19:16:56.505Z,94.30
2022-12-27T19:19:28.081Z,94.40
2022-12-27T19:21:55.313Z,94.60
2022-12-27T19:24:27.374Z,94.80
2022-12-27T19:26:55.728Z,95.10
2022-12-27T19:29:28.339Z,95.30
2022-12-27T19:31:57.139Z,95.30
2022-12-27T19:34:45.638Z,95.40
2022-12-27T19:37:12.913Z,95.50
2022-12-27T19:39:41.454Z,95.50
2022-12-27T19:42:21.390Z,95.60
2022-12-27T19:44:48.131Z,95.60
2022-12-27T19:47:15.480Z,95.60
2022-12-27T19:49:44.181Z,95.70
2022-12-27T19:52:19.379Z,95.80
2022-12-27T19:54:47.603Z,95.80
2022-12-27T19:57:14.837Z,95.90
2022-12-27T19:59:42.175Z,96.00
2022-12-27T20:02:09.898Z,96.00
2022-12-27T20:04:37.007Z,95.90
2022-12-27T20:07:03.837Z,96.00
2022-12-27T20:09:30.649Z,96.10
2022-12-27T20:11:57.524Z,96.20
2022-12-27T20:14:24.299Z,96.30
2022-12-27T20:16:51.064Z,96.50
2022-12-27T20:19:19.969Z,96.60
2022-12-27T20:21:47.035Z,96.70
2022-12-27T20:24:14.216Z,96.80
2022-12-27T20:26:42.255Z,96.90
2022-12-27T20:29:10.104Z,97.00
2022-12-27T20:31:44.295Z,97.10
2022-12-27T20:34:12.785Z,97.20
2022-12-27T20:36:39.798Z,97.30
2022-12-27T20:39:09.552Z,97.40
2022-12-27T20:41:36.436Z,97.40
2022-12-27T20:44:03.390Z,97.40
2022-12-27T20:46:30.186Z,97.50
2022-12-27T20:48:57.437Z,97.60
2022-12-27T20:51:27.558Z,97.60
2022-12-27T20:53:56.580Z,97.60
2022-12-27T20:56:23.758Z,97.50
2022-12-27T20:58:50.509Z,97.50
2022-12-27T21:01:24.211Z,97.50
2022-12-27T21:03:51.232Z,97.50
2022-12-27T21:06:23.461Z,97.60
2022-12-27T21:08:56.240Z,97.60
2022-12-27T21:11:31.646Z,97.50
2022-12-27T21:13:59.853Z,97.40
2022-12-27T21:16:29.112Z,97.30
2022-12-27T21:19:04.880Z,97.10
2022-12-27T21:21:34.449Z,97.00
2022-12-27T21:24:01.620Z,96.90
2022-12-27T21:26:33.860Z,96.80
2022-12-27T21:29:01.514Z,96.70
2022-12-27T21:31:28.960Z,96.60
2022-12-27T21:33:55.955Z,96.40
2022-12-27T21:36:24.956Z,96.30
2022-12-27T21:38:52.655Z,96.20
2022-12-27T21:41:24.726Z,96.00
2022-12-27T21:43:52.207Z,95.90
2022-12-27T21:46:25.391Z,95.80
2022-12-27T21:49:00.276Z,95.50
2022-12-27T21:51:27.934Z,95.30
2022-12-27T21:53:57.136Z,95.30
2022-12-27T21:56:24.406Z,95.10
2022-12-27T21:58:51.317Z,94.70
2022-12-27T22:01:20.450Z,94.50
2022-12-27T22:03:49.653Z,94.50
2022-12-27T22:06:19.248Z,94.50
2022-12-27T22:08:48.228Z,94.50
2022-12-27T22:11:16.035Z,94.40
2022-12-27T22:13:43.240Z,94.40
2022-12-27T22:16:19.266Z,94.40
2022-12-27T22:18:46.264Z,94.30
2022-12-27T22:21:18.503Z,94.30
2022-12-27T22:23:48.030Z,94.20
2022-12-27T22:26:17.964Z,94.10
2022-12-27T22:28:45.538Z,94.10
2022-12-27T22:31:15.196Z,94.00
2022-12-27T22:33:42.490Z,94.00
2022-12-27T22:36:13.100Z,93.80
2022-12-27T22:38:40.730Z,93.80
2022-12-27T22:41:22.154Z,93.70
2022-12-27T22:43:54.511Z,93.70
2022-12-27T22:46:21.436Z,93.60
2022-12-27T22:48:54.687Z,93.60
2022-12-27T22:51:36.299Z,93.60
2022-12-27T22:54:04.791Z,93.40
2022-12-27T22:56:34.377Z,93.30
2022-12-27T22:59:01.603Z,93.20
2022-12-27T23:01:31.642Z,93.20
2022-12-27T23:04:00.251Z,93.10
2022-12-27T23:06:28.413Z,93.00
2022-12-27T23:08:55.336Z,92.90
2022-12-27T23:11:24.330Z,92.70
2022-12-27T23:14:12.635Z,92.70
2022-12-27T23:16:42.262Z,92.50
2022-12-27T23:19:09.545Z,92.50
2022-12-27T23:21:36.661Z,92.30
2022-12-27T23:24:03.863Z,92.20
2022-12-27T23:26:30.726Z,92.10
2022-12-27T23:28:57.961Z,91.90
2022-12-27T23:31:25.851Z,91.90
2022-12-27T23:33:53.250Z,91.80
2022-12-27T23:36:20.727Z,91.80
2022-12-27T23:38:47.896Z,91.70
2022-12-27T23:41:20.438Z,91.70
2022-12-27T23:43:52.786Z,91.60
2022-12-27T23:46:30.084Z,91.50
2022-12-27T23:48:58.412Z,91.50
2022-12-27T23:51:25.784Z,91.40
2022-12-27T23:53:52.639Z,91.40
2022-12-27T23:56:25.668Z,91.50
2022-12-27T23:58:54.733Z,91.50
